sensor_id;sensor_type;location;lat;lon;timestamp;temperature;humidity
45807;DHT22;31507;51.494;7.518;2023-05-29T00:00:17;12.10;99.90
45807;DHT22;31507;51.494;7.518;2023-05-29T00:02:43;12.00;99.90
45807;DHT22;31507;51.494;7.518;2023-05-29T00:05:10;11.90;99.90
45807;DHT22;31507;51.494;7.518;2023-05-29T00:07:37;11.80;99.90
45807;DHT22;31507;51.494;7.518;2023-05-29T00:10:03;11.80;99.90
45807;DHT22;31507;51.494;7.518;2023-05-29T00:12:29;11.80;99.90
45807;DHT22;31507;51.494;7.518;2023-05-29T00:14:55;11.80;99.90
45807;DHT22;31507;51.494;7.518;2023-05-29T00:17:20;11.70;99.90
45807;DHT22;31507;51.494;7.518;2023-05-29T00:19:46;11.70;99.90
45807;DHT22;31507;51.494;7.518;2023-05-29T00:22:12;11.70;99.90
45807;DHT22;31507;51.494;7.518;2023-05-29T00:24:38;11.70;99.90
45807;DHT22;31507;51.494;7.518;2023-05-29T00:27:03;11.60;99.90
45807;DHT22;31507;51.494;7.518;2023-05-29T00:29:29;11.60;99.90
45807;DHT22;31507;51.494;7.518;2023-05-29T00:31:56;11.50;99.90
45807;DHT22;31507;51.494;7.518;2023-05-29T00:34:22;11.50;99.90
45807;DHT22;31507;51.494;7.518;2023-05-29T00:36:48;11.40;99.90
45807;DHT22;31507;51.494;7.518;2023-05-29T00:39:14;11.40;99.90
45807;DHT22;31507;51.494;7.518;2023-05-29T00:41:40;11.40;99.90
45807;DHT22;31507;51.494;7.518;2023-05-29T00:44:05;11.30;99.90
45807;DHT22;31507;51.494;7.518;2023-05-29T00:46:32;11.20;99.90
45807;DHT22;31507;51.494;7.518;2023-05-29T00:49:01;11.20;99.90
45807;DHT22;31507;51.494;7.518;2023-05-29T00:51:28;11.10;99.90
45807;DHT22;31507;51.494;7.518;2023-05-29T00:53:55;11.00;99.90
45807;DHT22;31507;51.494;7.518;2023-05-29T00:56:22;10.90;99.90
45807;DHT22;31507;51.494;7.518;2023-05-29T00:58:49;10.90;99.90
45807;DHT22;31507;51.494;7.518;2023-05-29T01:01:17;10.80;99.90
45807;DHT22;31507;51.494;7.518;2023-05-29T01:03:43;10.80;99.90
45807;DHT22;31507;51.494;7.518;2023-05-29T01:06:09;10.70;99.90
45807;DHT22;31507;51.494;7.518;2023-05-29T01:08:35;10.80;99.90
45807;DHT22;31507;51.494;7.518;2023-05-29T01:13:53;10.70;99.90
45807;DHT22;31507;51.494;7.518;2023-05-29T01:16:35;10.60;99.90
45807;DHT22;31507;51.494;7.518;2023-05-29T01:22:19;10.50;99.90
45807;DHT22;31507;51.494;7.518;2023-05-29T01:25:11;10.40;99.90
45807;DHT22;31507;51.494;7.518;2023-05-29T01:27:41;10.40;99.90
45807;DHT22;31507;51.494;7.518;2023-05-29T01:30:11;10.30;99.90
45807;DHT22;31507;51.494;7.518;2023-05-29T01:32:37;10.30;99.90
45807;DHT22;31507;51.494;7.518;2023-05-29T01:35:04;10.30;99.90
45807;DHT22;31507;51.494;7.518;2023-05-29T01:37:30;10.20;99.90
45807;DHT22;31507;51.494;7.518;2023-05-29T01:39:55;10.20;99.90
45807;DHT22;31507;51.494;7.518;2023-05-29T01:42:22;10.20;99.90
45807;DHT22;31507;51.494;7.518;2023-05-29T01:44:48;10.10;99.90
45807;DHT22;31507;51.494;7.518;2023-05-29T01:47:15;10.00;99.90
45807;DHT22;31507;51.494;7.518;2023-05-29T01:49:41;10.00;99.90
45807;DHT22;31507;51.494;7.518;2023-05-29T01:52:09;9.90;99.90
45807;DHT22;31507;51.494;7.518;2023-05-29T01:54:35;9.90;99.90
45807;DHT22;31507;51.494;7.518;2023-05-29T01:57:02;9.80;99.90
45807;DHT22;31507;51.494;7.518;2023-05-29T01:59:28;9.80;99.90
45807;DHT22;31507;51.494;7.518;2023-05-29T02:01:54;9.70;99.90
45807;DHT22;31507;51.494;7.518;2023-05-29T02:04:20;9.70;99.90
45807;DHT22;31507;51.494;7.518;2023-05-29T02:06:45;9.60;99.90
45807;DHT22;31507;51.494;7.518;2023-05-29T02:09:11;9.60;99.90
45807;DHT22;31507;51.494;7.518;2023-05-29T02:11:37;9.50;99.90
45807;DHT22;31507;51.494;7.518;2023-05-29T02:14:02;9.50;99.90
45807;DHT22;31507;51.494;7.518;2023-05-29T02:16:29;9.40;99.90
45807;DHT22;31507;51.494;7.518;2023-05-29T02:18:59;9.40;99.90
45807;DHT22;31507;51.494;7.518;2023-05-29T02:21:24;9.30;99.90
45807;DHT22;31507;51.494;7.518;2023-05-29T02:23:50;9.30;99.90
45807;DHT22;31507;51.494;7.518;2023-05-29T02:26:16;9.20;99.90
45807;DHT22;31507;51.494;7.518;2023-05-29T02:28:41;9.20;99.90
45807;DHT22;31507;51.494;7.518;2023-05-29T02:31:07;9.20;99.90
45807;DHT22;31507;51.494;7.518;2023-05-29T02:33:33;9.20;99.90
45807;DHT22;31507;51.494;7.518;2023-05-29T02:35:58;9.20;99.90
45807;DHT22;31507;51.494;7.518;2023-05-29T02:38:24;9.10;99.90
45807;DHT22;31507;51.494;7.518;2023-05-29T02:40:49;9.10;99.90
45807;DHT22;31507;51.494;7.518;2023-05-29T02:43:15;9.00;99.90
45807;DHT22;31507;51.494;7.518;2023-05-29T02:45:40;8.90;99.90
45807;DHT22;31507;51.494;7.518;2023-05-29T02:48:06;8.90;99.90
45807;DHT22;31507;51.494;7.518;2023-05-29T02:50:33;8.90;99.90
45807;DHT22;31507;51.494;7.518;2023-05-29T02:52:58;8.80;99.90
45807;DHT22;31507;51.494;7.518;2023-05-29T02:55:24;8.70;99.90
45807;DHT22;31507;51.494;7.518;2023-05-29T02:57:50;8.70;99.90
45807;DHT22;31507;51.494;7.518;2023-05-29T03:00:18;8.60;99.90
45807;DHT22;31507;51.494;7.518;2023-05-29T03:02:44;8.60;99.90
45807;DHT22;31507;51.494;7.518;2023-05-29T03:05:09;8.60;99.90
45807;DHT22;31507;51.494;7.518;2023-05-29T03:07:35;8.50;99.90
45807;DHT22;31507;51.494;7.518;2023-05-29T03:10:01;8.50;99.90
45807;DHT22;31507;51.494;7.518;2023-05-29T03:12:29;8.40;99.90
45807;DHT22;31507;51.494;7.518;2023-05-29T03:14:55;8.40;99.90
45807;DHT22;31507;51.494;7.518;2023-05-29T03:17:21;8.40;99.90
45807;DHT22;31507;51.494;7.518;2023-05-29T03:19:47;8.30;99.90
45807;DHT22;31507;51.494;7.518;2023-05-29T03:22:13;8.30;99.90
45807;DHT22;31507;51.494;7.518;2023-05-29T03:24:38;8.30;99.90
45807;DHT22;31507;51.494;7.518;2023-05-29T03:27:04;8.30;99.90
45807;DHT22;31507;51.494;7.518;2023-05-29T03:29:31;8.40;99.90
45807;DHT22;31507;51.494;7.518;2023-05-29T03:31:57;8.30;99.90
45807;DHT22;31507;51.494;7.518;2023-05-29T03:34:23;8.30;99.90
45807;DHT22;31507;51.494;7.518;2023-05-29T03:36:49;8.30;99.90
45807;DHT22;31507;51.494;7.518;2023-05-29T03:39:14;8.30;99.90
45807;DHT22;31507;51.494;7.518;2023-05-29T03:41:40;8.30;99.90
45807;DHT22;31507;51.494;7.518;2023-05-29T03:44:06;8.30;99.90
45807;DHT22;31507;51.494;7.518;2023-05-29T03:46:31;8.20;99.90
45807;DHT22;31507;51.494;7.518;2023-05-29T03:48:57;8.30;99.90
45807;DHT22;31507;51.494;7.518;2023-05-29T03:51:23;8.30;99.90
45807;DHT22;31507;51.494;7.518;2023-05-29T03:53:48;8.30;99.90
45807;DHT22;31507;51.494;7.518;2023-05-29T03:56:14;8.30;99.90
45807;DHT22;31507;51.494;7.518;2023-05-29T03:58:40;8.30;99.90
45807;DHT22;31507;51.494;7.518;2023-05-29T04:01:06;8.20;99.90
45807;DHT22;31507;51.494;7.518;2023-05-29T04:03:31;8.20;99.90
45807;DHT22;31507;51.494;7.518;2023-05-29T04:05:57;8.30;99.90
45807;DHT22;31507;51.494;7.518;2023-05-29T04:08:23;8.30;99.90
45807;DHT22;31507;51.494;7.518;2023-05-29T04:10:48;8.30;99.90
45807;DHT22;31507;51.494;7.518;2023-05-29T04:13:14;8.40;99.90
45807;DHT22;31507;51.494;7.518;2023-05-29T04:15:40;8.50;99.90
45807;DHT22;31507;51.494;7.518;2023-05-29T04:18:07;8.50;99.90
45807;DHT22;31507;51.494;7.518;2023-05-29T04:20:32;8.50;99.90
45807;DHT22;31507;51.494;7.518;2023-05-29T04:22:58;8.60;99.90
45807;DHT22;31507;51.494;7.518;2023-05-29T04:25:24;8.60;99.90
45807;DHT22;31507;51.494;7.518;2023-05-29T04:27:49;8.60;99.90
45807;DHT22;31507;51.494;7.518;2023-05-29T04:30:16;8.80;99.90
45807;DHT22;31507;51.494;7.518;2023-05-29T04:32:42;8.80;99.90
45807;DHT22;31507;51.494;7.518;2023-05-29T04:35:08;8.80;99.90
45807;DHT22;31507;51.494;7.518;2023-05-29T04:37:35;8.80;99.90
45807;DHT22;31507;51.494;7.518;2023-05-29T04:40:07;8.80;99.90
45807;DHT22;31507;51.494;7.518;2023-05-29T04:42:35;8.90;99.90
45807;DHT22;31507;51.494;7.518;2023-05-29T04:45:02;8.80;99.90
45807;DHT22;31507;51.494;7.518;2023-05-29T04:47:27;8.90;99.90
45807;DHT22;31507;51.494;7.518;2023-05-29T04:49:54;8.90;99.90
45807;DHT22;31507;51.494;7.518;2023-05-29T04:52:19;9.00;99.90
45807;DHT22;31507;51.494;7.518;2023-05-29T04:54:46;9.00;99.90
45807;DHT22;31507;51.494;7.518;2023-05-29T04:57:12;9.10;99.90
45807;DHT22;31507;51.494;7.518;2023-05-29T04:59:37;9.10;99.90
45807;DHT22;31507;51.494;7.518;2023-05-29T05:02:04;9.20;99.90
45807;DHT22;31507;51.494;7.518;2023-05-29T05:04:29;9.30;99.90
45807;DHT22;31507;51.494;7.518;2023-05-29T05:06:55;9.30;99.90
45807;DHT22;31507;51.494;7.518;2023-05-29T05:09:21;9.40;99.90
45807;DHT22;31507;51.494;7.518;2023-05-29T05:11:46;9.40;99.90
45807;DHT22;31507;51.494;7.518;2023-05-29T05:14:12;9.50;99.90
45807;DHT22;31507;51.494;7.518;2023-05-29T05:16:37;9.50;99.90
45807;DHT22;31507;51.494;7.518;2023-05-29T05:19:03;9.60;99.90
45807;DHT22;31507;51.494;7.518;2023-05-29T05:21:28;9.60;99.90
45807;DHT22;31507;51.494;7.518;2023-05-29T05:23:57;9.70;99.90
45807;DHT22;31507;51.494;7.518;2023-05-29T05:26:22;9.80;99.90
45807;DHT22;31507;51.494;7.518;2023-05-29T05:28:48;9.90;99.90
45807;DHT22;31507;51.494;7.518;2023-05-29T05:31:13;10.00;99.90
45807;DHT22;31507;51.494;7.518;2023-05-29T05:33:39;10.30;99.90
45807;DHT22;31507;51.494;7.518;2023-05-29T05:36:05;10.70;99.90
45807;DHT22;31507;51.494;7.518;2023-05-29T05:38:32;11.20;99.90
45807;DHT22;31507;51.494;7.518;2023-05-29T05:40:57;11.80;99.90
45807;DHT22;31507;51.494;7.518;2023-05-29T05:43:23;12.40;99.90
45807;DHT22;31507;51.494;7.518;2023-05-29T05:45:49;13.00;99.90
45807;DHT22;31507;51.494;7.518;2023-05-29T05:48:15;13.30;99.90
45807;DHT22;31507;51.494;7.518;2023-05-29T05:50:41;13.60;99.90
45807;DHT22;31507;51.494;7.518;2023-05-29T05:53:06;13.80;99.90
45807;DHT22;31507;51.494;7.518;2023-05-29T05:55:32;14.00;99.90
45807;DHT22;31507;51.494;7.518;2023-05-29T05:57:57;14.30;99.90
45807;DHT22;31507;51.494;7.518;2023-05-29T06:00:23;14.40;99.90
45807;DHT22;31507;51.494;7.518;2023-05-29T06:02:49;14.30;99.90
45807;DHT22;31507;51.494;7.518;2023-05-29T06:05:15;14.40;99.90
45807;DHT22;31507;51.494;7.518;2023-05-29T06:07:41;14.60;99.90
45807;DHT22;31507;51.494;7.518;2023-05-29T06:10:07;14.70;99.90
45807;DHT22;31507;51.494;7.518;2023-05-29T06:12:33;14.80;99.90
45807;DHT22;31507;51.494;7.518;2023-05-29T06:14:59;15.00;99.90
45807;DHT22;31507;51.494;7.518;2023-05-29T06:17:25;15.00;99.90
45807;DHT22;31507;51.494;7.518;2023-05-29T06:19:51;15.00;99.90
45807;DHT22;31507;51.494;7.518;2023-05-29T06:22:18;15.10;99.90
45807;DHT22;31507;51.494;7.518;2023-05-29T06:24:43;15.10;99.90
45807;DHT22;31507;51.494;7.518;2023-05-29T06:27:09;14.90;99.90
45807;DHT22;31507;51.494;7.518;2023-05-29T06:29:35;14.50;99.90
45807;DHT22;31507;51.494;7.518;2023-05-29T06:32:01;14.00;99.90
45807;DHT22;31507;51.494;7.518;2023-05-29T06:34:27;13.70;99.90
45807;DHT22;31507;51.494;7.518;2023-05-29T06:36:52;13.60;99.90
45807;DHT22;31507;51.494;7.518;2023-05-29T06:39:18;13.60;99.90
45807;DHT22;31507;51.494;7.518;2023-05-29T06:41:45;14.10;99.90
45807;DHT22;31507;51.494;7.518;2023-05-29T06:44:11;14.70;99.90
45807;DHT22;31507;51.494;7.518;2023-05-29T06:46:37;15.10;99.90
45807;DHT22;31507;51.494;7.518;2023-05-29T06:49:02;15.40;99.90
45807;DHT22;31507;51.494;7.518;2023-05-29T06:51:28;15.50;99.90
45807;DHT22;31507;51.494;7.518;2023-05-29T06:53:53;15.60;99.90
45807;DHT22;31507;51.494;7.518;2023-05-29T06:56:20;15.60;99.90
45807;DHT22;31507;51.494;7.518;2023-05-29T06:58:46;15.50;99.90
45807;DHT22;31507;51.494;7.518;2023-05-29T07:01:12;15.70;99.90
45807;DHT22;31507;51.494;7.518;2023-05-29T07:03:37;15.90;99.90
45807;DHT22;31507;51.494;7.518;2023-05-29T07:06:04;15.80;99.90
45807;DHT22;31507;51.494;7.518;2023-05-29T07:08:30;15.50;99.90
45807;DHT22;31507;51.494;7.518;2023-05-29T07:10:55;15.40;99.90
45807;DHT22;31507;51.494;7.518;2023-05-29T07:13:21;15.30;99.90
45807;DHT22;31507;51.494;7.518;2023-05-29T07:15:48;15.20;99.90
45807;DHT22;31507;51.494;7.518;2023-05-29T07:18:14;15.20;99.90
45807;DHT22;31507;51.494;7.518;2023-05-29T07:20:40;15.40;99.90
45807;DHT22;31507;51.494;7.518;2023-05-29T07:23:05;15.40;99.90
45807;DHT22;31507;51.494;7.518;2023-05-29T07:25:31;15.40;99.90
45807;DHT22;31507;51.494;7.518;2023-05-29T07:27:58;15.40;99.90
45807;DHT22;31507;51.494;7.518;2023-05-29T07:30:24;15.50;99.90
45807;DHT22;31507;51.494;7.518;2023-05-29T07:32:49;15.50;99.90
45807;DHT22;31507;51.494;7.518;2023-05-29T07:35:15;15.80;99.90
45807;DHT22;31507;51.494;7.518;2023-05-29T07:37:41;15.80;99.90
45807;DHT22;31507;51.494;7.518;2023-05-29T07:40:07;15.90;99.90
45807;DHT22;31507;51.494;7.518;2023-05-29T07:42:33;15.90;99.90
45807;DHT22;31507;51.494;7.518;2023-05-29T07:44:59;16.00;99.90
45807;DHT22;31507;51.494;7.518;2023-05-29T07:47:25;16.10;99.90
45807;DHT22;31507;51.494;7.518;2023-05-29T07:49:51;16.20;99.90
45807;DHT22;31507;51.494;7.518;2023-05-29T07:52:17;16.50;99.90
45807;DHT22;31507;51.494;7.518;2023-05-29T07:54:43;16.80;99.90
45807;DHT22;31507;51.494;7.518;2023-05-29T07:57:09;16.90;99.90
45807;DHT22;31507;51.494;7.518;2023-05-29T07:59:40;16.70;99.60
45807;DHT22;31507;51.494;7.518;2023-05-29T08:02:07;16.70;98.10
45807;DHT22;31507;51.494;7.518;2023-05-29T08:04:32;16.60;99.60
45807;DHT22;31507;51.494;7.518;2023-05-29T08:07:02;16.60;98.20
45807;DHT22;31507;51.494;7.518;2023-05-29T08:09:30;16.40;97.60
45807;DHT22;31507;51.494;7.518;2023-05-29T08:11:56;16.20;99.70
45807;DHT22;31507;51.494;7.518;2023-05-29T08:14:22;16.30;97.90
45807;DHT22;31507;51.494;7.518;2023-05-29T08:16:48;16.00;99.60
45807;DHT22;31507;51.494;7.518;2023-05-29T08:19:13;16.10;99.90
45807;DHT22;31507;51.494;7.518;2023-05-29T08:21:39;16.40;98.60
45807;DHT22;31507;51.494;7.518;2023-05-29T08:24:06;16.40;99.90
45807;DHT22;31507;51.494;7.518;2023-05-29T08:26:32;16.70;99.90
45807;DHT22;31507;51.494;7.518;2023-05-29T08:28:57;16.70;98.20
45807;DHT22;31507;51.494;7.518;2023-05-29T08:31:23;16.90;99.00
45807;DHT22;31507;51.494;7.518;2023-05-29T08:33:51;17.00;98.40
45807;DHT22;31507;51.494;7.518;2023-05-29T08:36:17;17.10;98.60
45807;DHT22;31507;51.494;7.518;2023-05-29T08:38:43;17.30;98.00
45807;DHT22;31507;51.494;7.518;2023-05-29T08:41:22;17.40;98.00
45807;DHT22;31507;51.494;7.518;2023-05-29T08:43:52;17.50;96.90
45807;DHT22;31507;51.494;7.518;2023-05-29T08:46:18;17.70;97.40
45807;DHT22;31507;51.494;7.518;2023-05-29T08:48:51;17.60;95.20
45807;DHT22;31507;51.494;7.518;2023-05-29T08:51:20;17.60;95.80
45807;DHT22;31507;51.494;7.518;2023-05-29T08:53:47;17.60;95.70
45807;DHT22;31507;51.494;7.518;2023-05-29T08:56:13;17.80;95.50
45807;DHT22;31507;51.494;7.518;2023-05-29T08:58:39;17.90;95.00
45807;DHT22;31507;51.494;7.518;2023-05-29T09:01:05;18.00;93.30
45807;DHT22;31507;51.494;7.518;2023-05-29T09:03:30;17.70;93.90
45807;DHT22;31507;51.494;7.518;2023-05-29T09:05:59;17.70;94.90
45807;DHT22;31507;51.494;7.518;2023-05-29T09:08:29;17.70;93.90
45807;DHT22;31507;51.494;7.518;2023-05-29T09:10:58;17.80;94.70
45807;DHT22;31507;51.494;7.518;2023-05-29T09:13:25;17.80;94.20
45807;DHT22;31507;51.494;7.518;2023-05-29T09:16:02;18.00;93.70
45807;DHT22;31507;51.494;7.518;2023-05-29T09:18:32;18.30;92.60
45807;DHT22;31507;51.494;7.518;2023-05-29T09:20:58;18.20;93.60
45807;DHT22;31507;51.494;7.518;2023-05-29T09:23:26;18.40;93.10
45807;DHT22;31507;51.494;7.518;2023-05-29T09:26:02;18.50;91.80
45807;DHT22;31507;51.494;7.518;2023-05-29T09:28:30;18.30;88.40
45807;DHT22;31507;51.494;7.518;2023-05-29T09:30:57;18.10;92.00
45807;DHT22;31507;51.494;7.518;2023-05-29T09:33:22;18.50;92.70
45807;DHT22;31507;51.494;7.518;2023-05-29T09:35:52;18.50;91.40
45807;DHT22;31507;51.494;7.518;2023-05-29T09:38:18;18.60;90.10
45807;DHT22;31507;51.494;7.518;2023-05-29T09:40:45;18.70;91.00
45807;DHT22;31507;51.494;7.518;2023-05-29T09:43:20;19.00;88.10
45807;DHT22;31507;51.494;7.518;2023-05-29T09:45:49;19.20;90.40
45807;DHT22;31507;51.494;7.518;2023-05-29T09:48:22;19.20;90.00
45807;DHT22;31507;51.494;7.518;2023-05-29T09:50:48;19.40;88.00
45807;DHT22;31507;51.494;7.518;2023-05-29T09:53:28;19.70;87.20
45807;DHT22;31507;51.494;7.518;2023-05-29T09:55:57;19.40;80.80
45807;DHT22;31507;51.494;7.518;2023-05-29T09:58:26;19.00;84.40
45807;DHT22;31507;51.494;7.518;2023-05-29T10:00:52;18.90;85.50
45807;DHT22;31507;51.494;7.518;2023-05-29T10:03:19;19.00;85.10
45807;DHT22;31507;51.494;7.518;2023-05-29T10:05:51;19.10;84.60
45807;DHT22;31507;51.494;7.518;2023-05-29T10:08:20;19.30;86.50
45807;DHT22;31507;51.494;7.518;2023-05-29T10:10:49;19.80;85.50
45807;DHT22;31507;51.494;7.518;2023-05-29T10:13:18;19.80;82.00
45807;DHT22;31507;51.494;7.518;2023-05-29T10:15:45;19.80;81.50
45807;DHT22;31507;51.494;7.518;2023-05-29T10:18:13;20.10;81.80
45807;DHT22;31507;51.494;7.518;2023-05-29T10:20:41;20.30;79.00
45807;DHT22;31507;51.494;7.518;2023-05-29T10:23:09;20.20;80.10
45807;DHT22;31507;51.494;7.518;2023-05-29T10:25:36;20.20;78.60
45807;DHT22;31507;51.494;7.518;2023-05-29T10:28:02;20.50;79.60
45807;DHT22;31507;51.494;7.518;2023-05-29T10:30:57;20.60;79.40
45807;DHT22;31507;51.494;7.518;2023-05-29T10:36:20;20.40;78.30
45807;DHT22;31507;51.494;7.518;2023-05-29T10:38:52;20.70;77.00
45807;DHT22;31507;51.494;7.518;2023-05-29T10:41:30;20.70;75.50
45807;DHT22;31507;51.494;7.518;2023-05-29T10:44:00;20.60;78.00
45807;DHT22;31507;51.494;7.518;2023-05-29T10:49:20;20.60;78.30
45807;DHT22;31507;51.494;7.518;2023-05-29T10:51:46;20.70;78.10
45807;DHT22;31507;51.494;7.518;2023-05-29T10:54:12;20.60;77.20
45807;DHT22;31507;51.494;7.518;2023-05-29T10:56:39;20.60;75.50
45807;DHT22;31507;51.494;7.518;2023-05-29T10:59:07;20.50;75.90
45807;DHT22;31507;51.494;7.518;2023-05-29T11:01:34;20.60;75.70
45807;DHT22;31507;51.494;7.518;2023-05-29T11:06:41;21.10;76.50
45807;DHT22;31507;51.494;7.518;2023-05-29T11:25:29;20.90;75.10
45807;DHT22;31507;51.494;7.518;2023-05-29T11:27:54;20.70;75.60
45807;DHT22;31507;51.494;7.518;2023-05-29T11:30:21;20.80;76.50
45807;DHT22;31507;51.494;7.518;2023-05-29T11:32:47;21.10;75.30
45807;DHT22;31507;51.494;7.518;2023-05-29T11:35:14;21.00;74.30
45807;DHT22;31507;51.494;7.518;2023-05-29T11:37:41;21.00;76.60
45807;DHT22;31507;51.494;7.518;2023-05-29T11:40:11;21.20;75.40
45807;DHT22;31507;51.494;7.518;2023-05-29T11:42:47;21.30;75.30
45807;DHT22;31507;51.494;7.518;2023-05-29T11:45:17;21.60;74.30
45807;DHT22;31507;51.494;7.518;2023-05-29T11:47:59;21.50;73.60
45807;DHT22;31507;51.494;7.518;2023-05-29T11:50:27;21.60;74.10
45807;DHT22;31507;51.494;7.518;2023-05-29T11:52:53;21.60;73.70
45807;DHT22;31507;51.494;7.518;2023-05-29T11:55:20;21.50;72.20
45807;DHT22;31507;51.494;7.518;2023-05-29T11:57:50;21.20;72.00
45807;DHT22;31507;51.494;7.518;2023-05-29T12:00:17;21.20;72.10
45807;DHT22;31507;51.494;7.518;2023-05-29T12:02:47;21.40;73.10
45807;DHT22;31507;51.494;7.518;2023-05-29T12:05:14;21.20;73.10
45807;DHT22;31507;51.494;7.518;2023-05-29T12:07:51;21.20;73.80
45807;DHT22;31507;51.494;7.518;2023-05-29T12:10:18;21.30;75.00
45807;DHT22;31507;51.494;7.518;2023-05-29T12:12:59;21.50;73.50
45807;DHT22;31507;51.494;7.518;2023-05-29T12:15:28;21.60;73.30
45807;DHT22;31507;51.494;7.518;2023-05-29T12:17:55;21.70;73.30
45807;DHT22;31507;51.494;7.518;2023-05-29T12:20:24;21.40;73.10
45807;DHT22;31507;51.494;7.518;2023-05-29T12:22:52;21.20;73.70
45807;DHT22;31507;51.494;7.518;2023-05-29T12:25:21;21.20;72.40
45807;DHT22;31507;51.494;7.518;2023-05-29T12:27:48;21.20;73.50
45807;DHT22;31507;51.494;7.518;2023-05-29T12:32:48;21.50;71.70
45807;DHT22;31507;51.494;7.518;2023-05-29T12:38:07;21.70;72.00
45807;DHT22;31507;51.494;7.518;2023-05-29T12:40:35;21.80;72.30
45807;DHT22;31507;51.494;7.518;2023-05-29T12:43:07;21.90;71.50
45807;DHT22;31507;51.494;7.518;2023-05-29T12:45:36;22.10;70.60
45807;DHT22;31507;51.494;7.518;2023-05-29T12:48:06;22.50;71.30
45807;DHT22;31507;51.494;7.518;2023-05-29T12:50:40;22.60;70.00
45807;DHT22;31507;51.494;7.518;2023-05-29T12:53:12;22.80;69.80
45807;DHT22;31507;51.494;7.518;2023-05-29T12:55:40;22.70;68.90
45807;DHT22;31507;51.494;7.518;2023-05-29T12:58:16;22.70;68.70
45807;DHT22;31507;51.494;7.518;2023-05-29T13:00:44;22.80;69.40
45807;DHT22;31507;51.494;7.518;2023-05-29T13:03:11;22.60;69.80
45807;DHT22;31507;51.494;7.518;2023-05-29T13:05:44;22.60;70.00
45807;DHT22;31507;51.494;7.518;2023-05-29T13:08:12;22.80;67.40
45807;DHT22;31507;51.494;7.518;2023-05-29T13:10:37;22.30;68.40
45807;DHT22;31507;51.494;7.518;2023-05-29T13:13:03;22.20;69.00
45807;DHT22;31507;51.494;7.518;2023-05-29T13:15:29;22.20;68.80
45807;DHT22;31507;51.494;7.518;2023-05-29T13:17:54;22.30;69.90
45807;DHT22;31507;51.494;7.518;2023-05-29T13:20:20;22.40;70.60
45807;DHT22;31507;51.494;7.518;2023-05-29T13:22:47;22.40;70.20
45807;DHT22;31507;51.494;7.518;2023-05-29T13:25:15;22.90;71.10
45807;DHT22;31507;51.494;7.518;2023-05-29T13:27:51;23.00;69.80
45807;DHT22;31507;51.494;7.518;2023-05-29T13:30:18;22.90;68.40
45807;DHT22;31507;51.494;7.518;2023-05-29T13:32:44;22.60;65.90
45807;DHT22;31507;51.494;7.518;2023-05-29T13:35:10;22.20;68.50
45807;DHT22;31507;51.494;7.518;2023-05-29T13:37:36;22.30;68.30
45807;DHT22;31507;51.494;7.518;2023-05-29T13:40:03;22.20;67.90
45807;DHT22;31507;51.494;7.518;2023-05-29T13:42:30;22.10;68.30
45807;DHT22;31507;51.494;7.518;2023-05-29T13:44:56;22.10;69.00
45807;DHT22;31507;51.494;7.518;2023-05-29T13:47:21;22.30;69.40
45807;DHT22;31507;51.494;7.518;2023-05-29T13:49:47;22.30;69.80
45807;DHT22;31507;51.494;7.518;2023-05-29T13:52:13;22.30;68.20
45807;DHT22;31507;51.494;7.518;2023-05-29T13:54:38;22.30;68.50
45807;DHT22;31507;51.494;7.518;2023-05-29T13:57:06;22.10;68.50
45807;DHT22;31507;51.494;7.518;2023-05-29T13:59:32;22.40;68.90
45807;DHT22;31507;51.494;7.518;2023-05-29T14:01:58;22.40;68.40
45807;DHT22;31507;51.494;7.518;2023-05-29T14:04:24;22.30;68.50
45807;DHT22;31507;51.494;7.518;2023-05-29T14:06:51;22.50;68.50
45807;DHT22;31507;51.494;7.518;2023-05-29T14:09:17;22.50;68.10
45807;DHT22;31507;51.494;7.518;2023-05-29T14:11:48;22.60;68.10
45807;DHT22;31507;51.494;7.518;2023-05-29T14:14:13;22.60;66.70
45807;DHT22;31507;51.494;7.518;2023-05-29T14:16:41;22.40;66.90
45807;DHT22;31507;51.494;7.518;2023-05-29T14:19:06;22.20;66.30
45807;DHT22;31507;51.494;7.518;2023-05-29T14:21:32;22.20;66.30
45807;DHT22;31507;51.494;7.518;2023-05-29T14:23:58;22.10;65.50
45807;DHT22;31507;51.494;7.518;2023-05-29T14:26:23;22.00;65.90
45807;DHT22;31507;51.494;7.518;2023-05-29T14:28:49;22.00;66.10
45807;DHT22;31507;51.494;7.518;2023-05-29T14:31:15;22.10;66.50
45807;DHT22;31507;51.494;7.518;2023-05-29T14:33:41;22.00;65.60
45807;DHT22;31507;51.494;7.518;2023-05-29T14:36:06;21.90;65.90
45807;DHT22;31507;51.494;7.518;2023-05-29T14:38:32;22.10;65.60
45807;DHT22;31507;51.494;7.518;2023-05-29T14:40:58;22.10;65.60
45807;DHT22;31507;51.494;7.518;2023-05-29T14:43:23;22.00;64.90
45807;DHT22;31507;51.494;7.518;2023-05-29T14:45:49;21.90;65.00
45807;DHT22;31507;51.494;7.518;2023-05-29T14:48:14;22.00;65.90
45807;DHT22;31507;51.494;7.518;2023-05-29T14:50:41;22.00;65.70
45807;DHT22;31507;51.494;7.518;2023-05-29T14:53:07;22.10;66.20
45807;DHT22;31507;51.494;7.518;2023-05-29T14:55:33;21.90;64.30
45807;DHT22;31507;51.494;7.518;2023-05-29T14:58:06;21.60;65.50
45807;DHT22;31507;51.494;7.518;2023-05-29T15:00:31;21.60;64.80
45807;DHT22;31507;51.494;7.518;2023-05-29T15:02:57;21.50;64.60
45807;DHT22;31507;51.494;7.518;2023-05-29T15:05:25;21.50;64.90
45807;DHT22;31507;51.494;7.518;2023-05-29T15:07:52;21.70;65.00
45807;DHT22;31507;51.494;7.518;2023-05-29T15:10:20;21.70;63.60
45807;DHT22;31507;51.494;7.518;2023-05-29T15:12:46;21.70;64.50
45807;DHT22;31507;51.494;7.518;2023-05-29T15:15:12;21.70;64.30
45807;DHT22;31507;51.494;7.518;2023-05-29T15:17:38;21.60;64.50
45807;DHT22;31507;51.494;7.518;2023-05-29T15:20:05;21.60;64.50
45807;DHT22;31507;51.494;7.518;2023-05-29T15:22:31;21.80;64.10
45807;DHT22;31507;51.494;7.518;2023-05-29T15:24:56;22.00;64.70
45807;DHT22;31507;51.494;7.518;2023-05-29T15:27:22;22.00;63.90
45807;DHT22;31507;51.494;7.518;2023-05-29T15:29:52;22.00;63.60
45807;DHT22;31507;51.494;7.518;2023-05-29T15:32:18;22.20;63.10
45807;DHT22;31507;51.494;7.518;2023-05-29T15:34:43;22.30;63.30
45807;DHT22;31507;51.494;7.518;2023-05-29T15:37:09;22.10;61.90
45807;DHT22;31507;51.494;7.518;2023-05-29T15:39:34;21.80;62.60
45807;DHT22;31507;51.494;7.518;2023-05-29T15:42:01;21.80;61.10
45807;DHT22;31507;51.494;7.518;2023-05-29T15:44:28;21.70;61.40
45807;DHT22;31507;51.494;7.518;2023-05-29T15:46:53;21.90;62.90
45807;DHT22;31507;51.494;7.518;2023-05-29T15:49:19;22.10;62.30
45807;DHT22;31507;51.494;7.518;2023-05-29T15:51:45;22.20;63.00
45807;DHT22;31507;51.494;7.518;2023-05-29T15:54:10;22.30;61.40
45807;DHT22;31507;51.494;7.518;2023-05-29T15:56:36;22.20;61.40
45807;DHT22;31507;51.494;7.518;2023-05-29T15:59:01;22.30;61.80
45807;DHT22;31507;51.494;7.518;2023-05-29T16:01:28;22.40;62.00
45807;DHT22;31507;51.494;7.518;2023-05-29T16:03:54;22.30;60.50
45807;DHT22;31507;51.494;7.518;2023-05-29T16:06:20;22.10;59.80
45807;DHT22;31507;51.494;7.518;2023-05-29T16:08:46;21.90;60.30